Time;durP1;ratioP1;P1;durP2;ratioP2;P2;SDS_P1;SDS_P2;PMS_P1;PMS_P2;Temp;Humidity;BMP_temperature;BMP_pressure;BME280_temperature;BME280_humidity;BME280_pressure;Samples;Min_cycle;Max_cycle;Signal;HPM_P1;HPM_P2
2022/02/17 00:01:41;;;;;;;0.68;0.40;;;10.40;99.90;;;;;;5091192;28;19916;-64
2022/02/17 00:04:07;;;;;;;1.40;0.50;;;10.30;99.90;;;;;;5098408;28;20040;-64
2022/02/17 00:06:32;;;;;;;;;;;10.30;99.90;;;;;;5088339;28;20138;-64
2022/02/17 00:08:58;;;;;;;1.42;0.40;;;10.30;99.90;;;;;;5083741;28;20461;-64
2022/02/17 00:11:23;;;;;;;;;;;10.30;99.90;;;;;;5083603;28;20037;-63
2022/02/17 00:13:49;;;;;;;2.22;0.52;;;10.20;99.90;;;;;;5086150;28;20380;-63
2022/02/17 00:16:16;;;;;;;;;;;10.20;99.90;;;;;;5084928;28;20040;-63
2022/02/17 00:18:42;;;;;;;1.40;0.50;;;10.10;99.90;;;;;;5078075;28;20044;-63
2022/02/17 00:21:07;;;;;;;;;;;10.10;99.90;;;;;;5080238;28;20557;-65
2022/02/17 00:23:33;;;;;;;2.38;0.63;;;10.00;99.90;;;;;;5074665;28;20479;-64
2022/02/17 00:25:59;;;;;;;;;;;9.90;99.90;;;;;;5074731;28;20071;-64
2022/02/17 00:28:24;;;;;;;1.30;0.47;;;9.90;99.90;;;;;;5079889;28;19924;-63
2022/02/17 00:30:50;;;;;;;;;;;9.80;99.90;;;;;;5076591;28;20059;-64
2022/02/17 00:33:16;;;;;;;2.78;0.88;;;9.80;99.90;;;;;;5085975;28;19923;-64
2022/02/17 00:35:41;;;;;;;2.05;0.50;;;9.80;99.90;;;;;;5079823;28;20692;-64
2022/02/17 00:38:07;;;;;;;;;;;9.80;99.90;;;;;;5083131;28;20042;-63
2022/02/17 00:40:33;;;;;;;3.05;0.50;;;9.80;99.90;;;;;;5082684;28;20010;-63
2022/02/17 00:42:58;;;;;;;2.22;0.60;;;9.80;99.90;;;;;;5084498;28;20388;-64
2022/02/17 00:45:24;;;;;;;;;;;9.80;99.90;;;;;;5081668;28;20548;-64
2022/02/17 00:47:50;;;;;;;1.15;0.30;;;9.70;99.90;;;;;;5065416;28;19981;-64
2022/02/17 00:50:16;;;;;;;;;;;9.70;99.90;;;;;;5084491;28;20110;-64
2022/02/17 00:52:42;;;;;;;3.92;1.38;;;9.70;99.90;;;;;;5081039;28;20440;-63
2022/02/17 00:55:08;;;;;;;;;;;9.60;99.90;;;;;;5083246;28;20040;-63
2022/02/17 00:57:36;;;;;;;1.15;0.40;;;9.60;99.90;;;;;;5075604;28;20005;-67
2022/02/17 01:00:07;;;;;;;1.63;1.15;;;9.60;99.90;;;;;;5084499;28;20575;-63
2022/02/17 01:02:32;;;;;;;1.45;0.43;;;9.60;99.90;;;;;;5079079;28;20071;-64
2022/02/17 01:04:58;;;;;;;;;;;9.60;99.90;;;;;;5083997;28;20040;-63
2022/02/17 01:07:23;;;;;;;1.70;0.68;;;9.50;99.90;;;;;;5082257;28;19924;-63
2022/02/17 01:09:49;;;;;;;2.22;0.50;;;9.50;99.90;;;;;;5084272;28;20558;-63
2022/02/17 01:12:14;;;;;;;;;;;9.40;99.90;;;;;;5080398;28;20097;-64
2022/02/17 01:14:40;;;;;;;1.95;0.68;;;9.40;99.90;;;;;;5084380;28;19969;-64
2022/02/17 01:17:06;;;;;;;;;;;9.50;99.90;;;;;;5080079;28;20040;-65
2022/02/17 01:19:32;;;;;;;3.45;0.68;;;9.50;99.90;;;;;;5085107;28;19916;-64
2022/02/17 01:21:57;;;;;;;;;;;9.50;99.90;;;;;;5078866;28;20051;-63
2022/02/17 01:24:23;;;;;;;3.10;0.50;;;9.40;99.90;;;;;;5082399;28;19995;-64
2022/02/17 01:26:48;;;;;;;;;;;9.40;99.90;;;;;;5080453;28;20094;-64
2022/02/17 01:29:14;;;;;;;0.60;0.20;;;9.30;99.90;;;;;;5083989;28;19951;-64
2022/02/17 01:31:39;;;;;;;;;;;9.30;99.90;;;;;;5078900;28;20193;-64
2022/02/17 01:34:05;;;;;;;4.35;0.60;;;9.30;99.90;;;;;;5080157;28;19974;-64
2022/02/17 01:36:31;;;;;;;1.63;0.60;;;9.20;99.90;;;;;;5080361;28;20126;-64
2022/02/17 01:38:56;;;;;;;3.08;0.68;;;9.10;99.90;;;;;;5081344;28;20403;-64
2022/02/17 01:41:23;;;;;;;2.13;0.70;;;9.10;99.90;;;;;;5077921;28;20040;-64
2022/02/17 01:43:50;;;;;;;4.30;0.90;;;9.10;99.90;;;;;;5084423;28;20637;-64
2022/02/17 01:46:17;;;;;;;3.42;1.08;;;9.10;99.90;;;;;;5078570;28;20105;-64
2022/02/17 01:48:42;;;;;;;3.33;0.88;;;9.20;99.90;;;;;;5077262;28;20036;-63
2022/02/17 01:51:10;;;;;;;;;;;9.20;99.90;;;;;;5078987;28;20094;-64
2022/02/17 01:53:36;;;;;;;2.78;0.90;;;9.30;99.90;;;;;;5082738;28;20005;-64
2022/02/17 01:56:02;;;;;;;5.00;1.17;;;9.30;99.90;;;;;;5078131;28;20127;-64
2022/02/17 01:58:29;;;;;;;;;;;9.30;99.90;;;;;;5085118;28;20469;-64
2022/02/17 02:00:54;;;;;;;1.52;0.93;;;9.30;99.90;;;;;;5074431;28;19995;-64
2022/02/17 02:03:20;;;;;;;;;;;9.20;99.90;;;;;;5084156;28;20112;-64
2022/02/17 02:05:45;;;;;;;1.70;0.90;;;9.20;99.90;;;;;;5077606;28;20362;-63
2022/02/17 02:08:11;;;;;;;2.03;0.70;;;9.10;99.90;;;;;;5080774;28;20044;-64
2022/02/17 02:10:37;;;;;;;;;;;9.00;99.90;;;;;;5078319;28;20124;-64
2022/02/17 02:13:03;;;;;;;2.50;0.77;;;8.90;99.90;;;;;;5081773;28;19920;-64
2022/02/17 02:15:51;;;;;;;;;;;8.80;99.90;;;;;;5080478;28;20036;-64
2022/02/17 02:18:17;;;;;;;;;;;8.80;99.90;;;;;;5083257;28;19973;-64
2022/02/17 02:20:51;;;;;;;4.18;0.85;;;8.80;99.90;;;;;;5079004;28;19912;-64
2022/02/17 02:23:18;;;;;;;3.38;0.80;;;8.80;99.90;;;;;;5081675;28;20097;-64
2022/02/17 02:25:46;;;;;;;4.72;1.42;;;8.70;99.90;;;;;;5076665;28;20048;-63
2022/02/17 02:28:18;;;;;;;5.28;1.45;;;8.60;99.90;;;;;;5083338;28;20761;-63
2022/02/17 02:30:44;;;;;;;4.93;1.25;;;8.50;99.90;;;;;;5077991;28;20036;-64
2022/02/17 02:33:09;;;;;;;;;;;8.50;99.90;;;;;;5083559;28;20036;-64
2022/02/17 02:35:35;;;;;;;10.63;1.70;;;8.50;99.90;;;;;;5077907;28;20000;-64
2022/02/17 02:38:00;;;;;;;;;;;8.50;99.90;;;;;;5082204;28;20036;-64
2022/02/17 02:40:26;;;;;;;4.00;1.50;;;8.40;99.90;;;;;;5076682;28;19949;-64
2022/02/17 02:42:52;;;;;;;4.50;1.25;;;8.40;99.90;;;;;;5080733;28;20035;-64
2022/02/17 02:45:17;;;;;;;;;;;8.30;99.90;;;;;;5079279;28;20452;-63
2022/02/17 02:47:43;;;;;;;7.38;1.20;;;8.30;99.90;;;;;;5078865;28;20006;-64
2022/02/17 02:50:08;;;;;;;4.50;1.27;;;8.20;99.90;;;;;;5079011;28;20525;-64
2022/02/17 02:52:35;;;;;;;;;;;8.20;99.90;;;;;;5084560;28;20563;-63
2022/02/17 02:55:01;;;;;;;3.92;1.25;;;8.10;99.90;;;;;;5081168;28;19912;-64
2022/02/17 02:57:26;;;;;;;7.53;1.20;;;8.10;99.90;;;;;;5078730;28;20052;-64
2022/02/17 02:59:52;;;;;;;;;;;7.90;99.90;;;;;;5082996;28;20046;-64
2022/02/17 03:02:18;;;;;;;7.10;1.35;;;7.80;99.90;;;;;;5075050;28;19927;-64
2022/02/17 03:04:43;;;;;;;11.55;1.85;;;7.70;99.90;;;;;;5081730;28;20040;-63
2022/02/17 03:07:09;;;;;;;11.95;1.88;;;7.70;99.90;;;;;;5074295;28;20083;-64
2022/02/17 03:09:35;;;;;;;;;;;7.60;99.90;;;;;;5083847;28;20036;-64
2022/02/17 03:12:00;;;;;;;14.73;2.22;;;7.60;99.90;;;;;;5076665;28;19916;-64
2022/02/17 03:14:26;;;;;;;13.50;2.40;;;7.50;99.90;;;;;;5082314;28;20492;-64
2022/02/17 03:16:51;;;;;;;8.23;2.17;;;7.50;99.90;;;;;;5077169;28;20101;-63
2022/02/17 03:19:17;;;;;;;12.57;2.63;;;7.50;99.90;;;;;;5082642;28;20043;-63
2022/02/17 03:21:42;;;;;;;11.88;2.28;;;7.50;99.90;;;;;;5076131;28;20062;-64
2022/02/17 03:24:08;;;;;;;;;;;7.50;99.90;;;;;;5081714;28;20067;-64
2022/02/17 03:26:34;;;;;;;15.07;2.60;;;7.40;99.90;;;;;;5082012;28;19927;-63
2022/02/17 03:28:59;;;;;;;;;;;7.50;99.90;;;;;;5083580;28;20036;-63
2022/02/17 03:31:25;;;;;;;11.35;2.75;;;7.40;99.90;;;;;;5074770;28;19974;-64
2022/02/17 03:33:50;;;;;;;;;;;7.30;99.90;;;;;;5079221;28;20407;-63
2022/02/17 03:36:16;;;;;;;13.77;2.70;;;7.20;99.90;;;;;;5077037;28;19924;-63
2022/02/17 03:38:41;;;;;;;13.40;2.60;;;7.20;99.90;;;;;;5080953;28;20042;-64
2022/02/17 03:41:07;;;;;;;;;;;7.10;99.90;;;;;;5076734;28;20036;-64
2022/02/17 03:43:33;;;;;;;8.45;1.88;;;7.10;99.90;;;;;;5083160;28;19920;-64
2022/02/17 03:45:58;;;;;;;;;;;7.10;99.90;;;;;;5077023;28;20071;-64
2022/02/17 03:48:24;;;;;;;12.32;2.58;;;7.10;99.90;;;;;;5075119;28;19951;-64
2022/02/17 03:50:49;;;;;;;11.63;2.72;;;7.00;99.90;;;;;;5077023;28;20507;-64
2022/02/17 03:53:15;;;;;;;;;;;6.80;99.90;;;;;;5085143;28;20064;-64
2022/02/17 03:55:40;;;;;;;10.00;3.40;;;6.80;99.90;;;;;;5080926;28;19912;-64
2022/02/17 03:58:06;;;;;;;13.77;2.40;;;6.70;99.90;;;;;;5084688;28;20043;-63
2022/02/17 04:00:32;;;;;;;;;;;6.70;99.90;;;;;;5081659;28;20047;-64
2022/02/17 04:03:00;;;;;;;12.38;2.28;;;6.70;99.90;;;;;;5083731;28;19934;-63
2022/02/17 04:05:26;;;;;;;19.52;2.65;;;6.70;99.90;;;;;;5081858;28;20151;-64
2022/02/17 04:07:52;;;;;;;11.63;2.40;;;6.70;99.90;;;;;;5080792;28;20860;-63
2022/02/17 04:10:17;;;;;;;;;;;6.70;99.90;;;;;;5067493;28;20044;-64
2022/02/17 04:12:43;;;;;;;19.60;3.72;;;6.70;99.90;;;;;;5082383;28;19965;-64
2022/02/17 04:15:10;;;;;;;11.45;3.03;;;6.70;99.90;;;;;;5085049;28;20109;-64
2022/02/17 04:17:36;;;;;;;15.95;3.28;;;6.70;99.90;;;;;;5080796;28;20044;-63
2022/02/17 04:20:02;;;;;;;14.10;2.92;;;6.70;99.90;;;;;;5084785;28;20039;-63
2022/02/17 04:22:28;;;;;;;23.02;3.40;;;6.70;99.90;;;;;;5084737;28;20444;-64
2022/02/17 04:24:53;;;;;;;14.02;3.15;;;6.70;99.90;;;;;;5085257;28;20040;-63
2022/02/17 04:27:19;;;;;;;14.65;3.20;;;6.70;99.90;;;;;;5080948;28;20051;-64
2022/02/17 04:29:44;;;;;;;28.00;4.03;;;6.60;99.90;;;;;;5086613;28;20039;-64
2022/02/17 04:32:10;;;;;;;;;;;6.60;99.90;;;;;;5079778;28;20039;-63
2022/02/17 04:34:36;;;;;;;23.48;4.40;;;6.60;99.90;;;;;;5085135;28;19915;-61
2022/02/17 04:37:02;;;;;;;18.02;2.60;;;6.50;99.90;;;;;;5080504;28;20052;-64
2022/02/17 04:39:27;;;;;;;17.40;3.17;;;6.30;99.90;;;;;;5086456;28;20036;-63
2022/02/17 04:44:37;;;;;;;14.38;2.97;;;5.70;99.90;;;;;;5078135;28;20037;-61
2022/02/17 04:47:04;;;;;;;15.98;3.58;;;5.60;99.90;;;;;;5078639;28;20044;-63
2022/02/17 04:49:30;;;;;;;16.85;3.20;;;5.60;99.90;;;;;;5079062;28;20474;-64
2022/02/17 04:51:55;;;;;;;22.20;4.05;;;5.60;99.90;;;;;;5079603;28;20048;-63
2022/02/17 04:54:21;;;;;;;20.70;3.45;;;5.60;99.90;;;;;;5084169;28;20549;-63
2022/02/17 04:56:46;;;;;;;18.92;3.35;;;5.50;99.90;;;;;;5080249;28;20039;-62
2022/02/17 04:59:12;;;;;;;23.08;3.15;;;5.40;99.90;;;;;;5084892;28;20043;-63
2022/02/17 05:01:38;;;;;;;;;;;5.40;99.90;;;;;;5075537;28;20735;-63
2022/02/17 05:04:03;;;;;;;15.02;2.53;;;5.40;99.90;;;;;;5083572;28;19915;-63
2022/02/17 05:06:29;;;;;;;16.38;4.70;;;5.60;99.90;;;;;;5079667;28;20036;-63
2022/02/17 05:08:54;;;;;;;28.15;5.22;;;5.70;99.90;;;;;;5082958;28;20071;-63
2022/02/17 05:11:20;;;;;;;;;;;5.60;99.90;;;;;;5079678;28;20602;-63
2022/02/17 05:13:46;;;;;;;23.48;3.13;;;5.60;99.90;;;;;;5085010;28;19916;-63
2022/02/17 05:16:11;;;;;;;;;;;5.70;99.90;;;;;;5079317;28;20048;-63
2022/02/17 05:18:37;;;;;;;29.17;2.70;;;5.70;99.90;;;;;;5085335;28;19920;-62
2022/02/17 05:21:03;;;;;;;14.77;3.70;;;5.70;99.90;;;;;;5078815;28;20062;-68
2022/02/17 05:23:28;;;;;;;31.23;4.25;;;5.70;99.90;;;;;;5084344;28;20312;-64
2022/02/17 05:25:54;;;;;;;29.35;4.40;;;5.80;99.90;;;;;;5075255;28;20044;-63
2022/02/17 05:28:20;;;;;;;20.63;2.72;;;5.70;99.90;;;;;;5084997;28;20511;-64
2022/02/17 05:30:45;;;;;;;;;;;5.60;99.90;;;;;;5074996;28;20071;-64
2022/02/17 05:33:13;;;;;;;18.83;3.20;;;5.50;99.90;;;;;;5081944;28;20361;-64
2022/02/17 05:35:39;;;;;;;23.83;3.47;;;5.50;99.90;;;;;;5080339;28;20032;-63
2022/02/17 05:38:05;;;;;;;23.90;3.72;;;5.60;99.90;;;;;;5082533;28;20084;-63
2022/02/17 05:40:31;;;;;;;20.67;3.22;;;5.60;99.90;;;;;;5080188;28;20027;-63
2022/02/17 05:42:57;;;;;;;25.42;4.63;;;5.60;99.90;;;;;;5084872;28;20047;-62
2022/02/17 05:45:23;;;;;;;18.35;3.22;;;5.60;99.90;;;;;;5078659;28;20078;-61
2022/02/17 05:47:49;;;;;;;25.08;3.20;;;5.60;99.90;;;;;;5085050;28;20124;-62
2022/02/17 05:50:14;;;;;;;28.15;4.20;;;5.60;99.90;;;;;;5080382;28;20028;-63
2022/02/17 05:52:40;;;;;;;19.88;3.13;;;5.60;99.90;;;;;;5083315;28;20114;-63
2022/02/17 05:55:06;;;;;;;26.92;3.72;;;5.60;99.90;;;;;;5074060;28;20039;-62
2022/02/17 05:57:32;;;;;;;18.92;3.72;;;5.60;99.90;;;;;;5077877;28;20043;-65
2022/02/17 05:59:58;;;;;;;23.70;3.25;;;5.60;99.90;;;;;;5080404;28;20397;-63
2022/02/17 06:02:26;;;;;;;25.90;4.57;;;5.60;99.90;;;;;;5080179;28;20131;-63
2022/02/17 06:04:52;;;;;;;22.15;4.05;;;5.70;99.90;;;;;;5079168;28;20036;-65
2022/02/17 06:07:18;;;;;;;18.88;3.65;;;5.70;99.90;;;;;;5072778;28;20044;-63
2022/02/17 06:09:44;;;;;;;25.60;3.50;;;5.70;99.90;;;;;;5081597;28;20081;-63
2022/02/17 06:12:10;;;;;;;20.85;4.55;;;5.70;99.90;;;;;;5083065;28;21366;-66
2022/02/17 06:14:36;;;;;;;17.70;3.00;;;5.50;99.90;;;;;;5081003;28;20682;-63
2022/02/17 06:17:02;;;;;;;20.25;3.72;;;5.40;99.90;;;;;;5081762;28;20071;-63
2022/02/17 06:19:28;;;;;;;21.40;3.83;;;5.30;99.90;;;;;;5081122;28;20459;-64
2022/02/17 06:21:54;;;;;;;21.08;3.83;;;5.20;99.90;;;;;;5081619;28;20114;-67
2022/02/17 06:24:20;;;;;;;24.98;4.90;;;5.20;99.90;;;;;;5081944;28;20481;-63
2022/02/17 06:26:46;;;;;;;25.33;3.78;;;5.10;99.90;;;;;;5080843;28;20043;-63
2022/02/17 06:29:12;;;;;;;24.48;3.58;;;5.30;99.90;;;;;;5082181;28;20066;-64
2022/02/17 06:31:37;;;;;;;18.52;3.75;;;5.30;99.90;;;;;;5079709;28;20507;-64
2022/02/17 06:34:03;;;;;;;24.27;4.28;;;5.30;99.90;;;;;;5081939;28;20043;-63
2022/02/17 06:36:29;;;;;;;22.23;3.90;;;5.40;99.90;;;;;;5078842;28;20071;-63
2022/02/17 06:38:55;;;;;;;26.20;4.57;;;5.40;99.90;;;;;;5080366;28;20054;-63
2022/02/17 06:41:22;;;;;;;23.65;3.55;;;5.40;99.90;;;;;;5078231;28;20077;-63
2022/02/17 06:43:48;;;;;;;26.02;3.97;;;5.40;99.90;;;;;;5083194;28;20052;-64
2022/02/17 06:46:14;;;;;;;21.05;4.00;;;5.40;99.90;;;;;;5081688;28;20110;-63
2022/02/17 06:48:40;;;;;;;20.45;3.97;;;5.40;99.90;;;;;;5077481;28;20043;-63
2022/02/17 06:51:06;;;;;;;18.70;3.25;;;5.50;99.90;;;;;;5081547;28;20061;-63
2022/02/17 06:53:32;;;;;;;;;;;5.50;99.90;;;;;;5084556;28;20040;-64
2022/02/17 06:55:58;;;;;;;26.35;5.35;;;5.50;99.90;;;;;;5080968;28;19920;-63
2022/02/17 06:58:23;;;;;;;24.65;3.53;;;5.50;99.90;;;;;;5079367;28;20047;-64
2022/02/17 07:00:49;;;;;;;28.50;3.75;;;5.50;99.90;;;;;;5075820;28;20051;-63
2022/02/17 07:03:15;;;;;;;17.60;3.55;;;5.50;99.90;;;;;;5083750;28;20084;-64
2022/02/17 07:05:41;;;;;;;25.20;4.80;;;5.50;99.90;;;;;;5079764;28;20042;-63
2022/02/17 07:08:07;;;;;;;26.58;4.03;;;5.50;99.90;;;;;;5081910;28;20040;-63
2022/02/17 07:13:17;;;;;;;29.45;4.47;;;5.60;99.90;;;;;;5085179;28;20036;-63
2022/02/17 07:15:44;;;;;;;27.10;3.80;;;5.60;99.90;;;;;;5077546;28;20063;-63
2022/02/17 07:18:10;;;;;;;30.73;4.50;;;5.50;99.90;;;;;;5082405;28;20111;-64
2022/02/17 07:20:38;;;;;;;39.70;4.88;;;5.50;99.90;;;;;;5075751;28;20686;-64
2022/02/17 07:23:04;;;;;;;27.17;5.50;;;5.30;99.90;;;;;;5083349;28;20040;-63
2022/02/17 07:25:29;;;;;;;29.48;5.32;;;5.30;99.90;;;;;;5078715;28;20559;-62
2022/02/17 07:27:55;;;;;;;20.52;4.05;;;5.30;99.90;;;;;;5084998;28;20048;-63
2022/02/17 07:30:21;;;;;;;19.70;3.97;;;5.30;99.90;;;;;;5083163;28;20039;-64
2022/02/17 07:32:46;;;;;;;;;;;5.30;99.90;;;;;;5087784;28;20117;-64
2022/02/17 07:35:12;;;;;;;17.30;2.13;;;5.40;99.90;;;;;;5081969;28;20069;-63
2022/02/17 07:37:39;;;;;;;22.70;1.20;;;4.90;99.90;;;;;;5082844;28;20068;-63
2022/02/17 07:40:06;;;;;;;2.90;0.60;;;3.90;99.90;;;;;;5080300;28;20134;-60
2022/02/17 07:42:32;;;;;;;3.08;0.63;;;3.40;99.90;;;;;;5080963;28;20519;-63
2022/02/17 07:45:00;;;;;;;1.38;0.20;;;2.90;99.90;;;;;;5077632;28;20041;-64
2022/02/17 07:47:26;;;;;;;0.73;0.30;;;2.50;99.90;;;;;;5083022;28;20067;-63
2022/02/17 07:49:54;;;;;;;3.05;0.20;;;2.30;99.90;;;;;;5081064;28;20040;-62
2022/02/17 07:52:29;;;;;;;1.75;0.25;;;2.10;99.90;;;;;;5071596;28;20867;-63
2022/02/17 07:54:55;;;;;;;0.68;0.20;;;2.10;99.90;;;;;;5079253;28;20554;-63
2022/02/17 07:57:20;;;;;;;0.77;0.30;;;2.00;99.90;;;;;;5072588;28;20040;-63
2022/02/17 07:59:46;;;;;;;5.28;1.40;;;2.10;99.90;;;;;;5086333;28;20032;-63
2022/02/17 08:02:12;;;;;;;13.30;1.90;;;2.20;99.90;;;;;;5081827;28;20084;-64
2022/02/17 08:04:38;;;;;;;10.48;1.42;;;2.30;99.90;;;;;;5084094;28;20051;-63
2022/02/17 08:07:05;;;;;;;5.20;1.38;;;2.40;99.90;;;;;;5077627;28;20033;-63
2022/02/17 08:09:31;;;;;;;5.72;1.30;;;2.30;99.90;;;;;;5087151;28;20040;-63
2022/02/17 08:11:56;;;;;;;5.68;1.10;;;2.30;99.90;;;;;;5080664;28;20047;-62
2022/02/17 08:14:22;;;;;;;5.97;1.02;;;2.30;99.90;;;;;;5086021;28;20118;-63
2022/02/17 08:16:48;;;;;;;9.93;1.30;;;2.30;99.90;;;;;;5080888;28;20044;-63
2022/02/17 08:19:14;;;;;;;7.10;1.60;;;2.30;99.90;;;;;;5081166;28;20124;-63
2022/02/17 08:21:40;;;;;;;7.60;1.23;;;2.40;99.90;;;;;;5066995;28;20089;-63
2022/02/17 08:24:06;;;;;;;9.80;1.63;;;2.30;99.90;;;;;;5074684;28;20072;-63
2022/02/17 08:26:31;;;;;;;13.20;1.55;;;2.20;99.90;;;;;;5073470;28;20632;-63
2022/02/17 08:29:00;;;;;;;4.20;1.05;;;2.30;99.90;;;;;;5079958;28;20493;-63
2022/02/17 08:31:27;;;;;;;10.90;1.60;;;2.30;99.90;;;;;;5075758;28;20055;-63
2022/02/17 08:33:53;;;;;;;11.48;1.08;;;2.40;99.90;;;;;;5065918;28;20515;-63
2022/02/17 08:36:19;;;;;;;7.80;1.50;;;2.40;99.90;;;;;;5063292;28;20052;-63
2022/02/17 08:38:45;;;;;;;7.00;1.83;;;2.40;99.90;;;;;;5084130;28;20040;-64
2022/02/17 08:41:11;;;;;;;9.98;1.42;;;2.40;99.90;;;;;;5080331;28;20046;-63
2022/02/17 08:43:37;;;;;;;10.25;2.15;;;2.50;99.90;;;;;;5085085;28;20044;-64
2022/02/17 08:46:03;;;;;;;15.90;2.72;;;2.70;99.90;;;;;;5078080;28;20037;-64
2022/02/17 08:48:29;;;;;;;16.73;3.13;;;2.90;99.90;;;;;;5080352;28;20067;-63
2022/02/17 08:50:56;;;;;;;16.63;3.38;;;2.90;99.90;;;;;;5080952;28;20076;-64
2022/02/17 08:53:21;;;;;;;20.33;3.22;;;3.10;99.90;;;;;;5086786;28;20042;-63
2022/02/17 08:55:47;;;;;;;19.95;3.53;;;3.20;99.90;;;;;;5076899;28;20049;-63
2022/02/17 08:58:13;;;;;;;19.88;3.55;;;3.40;99.90;;;;;;5083398;28;20093;-63
2022/02/17 09:00:38;;;;;;;14.23;2.70;;;3.50;99.90;;;;;;5079116;28;20043;-63
2022/02/17 09:03:06;;;;;;;21.02;3.63;;;3.70;99.90;;;;;;5085190;28;20036;-63
2022/02/17 09:05:32;;;;;;;26.02;3.33;;;3.90;99.90;;;;;;5077186;28;20050;-63
2022/02/17 09:07:59;;;;;;;22.05;2.75;;;3.90;99.90;;;;;;5080577;28;20120;-64
2022/02/17 09:10:25;;;;;;;17.55;2.83;;;3.80;99.90;;;;;;5084044;28;20138;-63
2022/02/17 09:12:50;;;;;;;16.00;3.13;;;3.80;99.90;;;;;;5084218;28;20032;-62
2022/02/17 09:15:17;;;;;;;21.25;4.75;;;3.70;99.90;;;;;;5081750;28;20032;-63
2022/02/17 09:17:48;;;;;;;13.55;2.78;;;3.60;99.90;;;;;;5082905;28;20075;-62
2022/02/17 09:20:15;;;;;;;17.27;2.65;;;3.40;99.90;;;;;;5085116;28;20041;-63
2022/02/17 09:22:42;;;;;;;17.90;2.10;;;3.30;99.90;;;;;;5080381;28;20036;-64
2022/02/17 09:25:08;;;;;;;17.02;2.60;;;3.10;99.90;;;;;;5081332;28;20388;-64
2022/02/17 09:27:34;;;;;;;12.07;1.63;;;3.00;99.90;;;;;;5081744;28;20056;-64
2022/02/17 09:30:01;;;;;;;15.95;2.15;;;2.90;99.90;;;;;;5085273;28;20124;-63
2022/02/17 09:32:27;;;;;;;9.52;1.55;;;2.80;99.90;;;;;;5081215;28;20039;-64
2022/02/17 09:34:53;;;;;;;5.22;1.15;;;2.70;99.90;;;;;;5082159;28;20044;-64
2022/02/17 09:37:18;;;;;;;5.57;0.90;;;2.50;99.90;;;;;;5078189;28;20036;-63
2022/02/17 09:39:44;;;;;;;3.28;0.75;;;2.40;99.90;;;;;;5083226;28;20041;-64
2022/02/17 09:42:10;;;;;;;2.25;0.50;;;2.30;99.90;;;;;;5079676;28;20047;-63
2022/02/17 09:44:36;;;;;;;4.60;1.10;;;2.30;99.90;;;;;;5074211;28;20408;-63
2022/02/17 09:47:03;;;;;;;9.05;1.25;;;2.30;99.90;;;;;;5065364;28;20127;-64
2022/02/17 09:49:32;;;;;;;2.15;0.73;;;2.40;99.90;;;;;;5081988;28;20071;-63
2022/02/17 09:51:58;;;;;;;6.25;1.90;;;2.70;99.90;;;;;;5077887;28;20119;-63
2022/02/17 09:54:24;;;;;;;8.73;1.67;;;3.00;99.90;;;;;;5084315;28;20040;-63
2022/02/17 09:56:50;;;;;;;9.50;1.90;;;3.20;99.90;;;;;;5079164;28;20058;-64
2022/02/17 09:59:17;;;;;;;16.83;2.35;;;3.40;99.90;;;;;;5085148;28;20719;-63
2022/02/17 10:01:53;;;;;;;19.50;3.35;;;3.50;99.90;;;;;;5077719;28;20446;-63
2022/02/17 10:04:21;;;;;;;24.92;3.13;;;3.70;99.90;;;;;;5084510;28;20059;-63
2022/02/17 10:06:58;;;;;;;19.60;2.80;;;3.80;99.90;;;;;;5078031;28;20389;-62
2022/02/17 10:09:41;;;;;;;14.15;2.83;;;3.80;99.90;;;;;;5077562;28;20051;-64
2022/02/17 10:12:11;;;;;;;14.02;2.75;;;3.80;99.90;;;;;;5077395;28;20096;-63
2022/02/17 10:14:37;;;;;;;21.05;3.20;;;3.80;99.90;;;;;;5083638;28;20422;-63
2022/02/17 10:17:09;;;;;;;21.10;3.67;;;3.80;99.90;;;;;;5074321;28;20036;-63
2022/02/17 10:19:44;;;;;;;18.80;3.72;;;3.90;99.90;;;;;;5086100;28;20881;-63
2022/02/17 10:22:13;;;;;;;20.80;3.60;;;4.00;99.90;;;;;;5077970;28;20059;-64
2022/02/17 10:24:50;;;;;;;19.77;4.15;;;4.10;99.90;;;;;;5084421;28;20115;-63
2022/02/17 10:27:18;;;;;;;26.95;4.50;;;4.10;99.90;;;;;;5080372;28;20496;-63
2022/02/17 10:30:11;;;;;;;16.70;3.58;;;4.20;99.90;;;;;;5084112;28;20051;-64
2022/02/17 10:32:52;;;;;;;24.17;4.32;;;4.60;99.90;;;;;;5078526;28;20077;-63
2022/02/17 10:35:18;;;;;;;15.90;3.78;;;4.80;99.90;;;;;;5082187;28;20592;-64
2022/02/17 10:37:55;;;;;;;16.05;2.63;;;4.90;99.90;;;;;;5080813;28;20048;-64
2022/02/17 10:40:27;;;;;;;18.35;3.28;;;5.10;99.90;;;;;;5084120;28;20119;-63
2022/02/17 10:43:10;;;;;;;12.40;2.40;;;5.10;99.90;;;;;;5082300;28;20040;-64
2022/02/17 10:45:37;;;;;;;14.05;1.88;;;5.20;99.90;;;;;;5074037;28;20040;-63
2022/02/17 10:48:26;;;;;;;8.30;1.88;;;5.20;99.90;;;;;;5083685;28;20644;-64
2022/02/17 10:51:15;;;;;;;13.27;2.55;;;4.90;99.90;;;;;;5078748;28;20493;-64
2022/02/17 10:53:42;;;;;;;16.77;3.05;;;4.80;99.90;;;;;;5078631;28;20036;-63
2022/02/17 10:56:13;;;;;;;15.07;2.28;;;4.60;99.90;;;;;;5081635;28;20131;-64
2022/02/17 10:58:48;;;;;;;16.20;2.63;;;4.40;99.90;;;;;;5082915;28;20043;-64
2022/02/17 11:01:16;;;;;;;13.52;3.28;;;4.20;99.90;;;;;;5078466;28;20481;-63
2022/02/17 11:03:42;;;;;;;12.43;2.70;;;4.10;99.90;;;;;;5082665;28;20504;-63
2022/02/17 11:06:10;;;;;;;19.17;2.78;;;4.10;99.90;;;;;;5078737;28;20051;-64
2022/02/17 11:08:36;;;;;;;12.02;3.92;;;4.00;99.90;;;;;;5081749;28;20118;-63
2022/02/17 11:11:04;;;;;;;15.55;2.65;;;4.00;99.90;;;;;;5078414;28;20068;-63
2022/02/17 11:13:31;;;;;;;21.05;2.70;;;4.00;99.90;;;;;;5081624;28;20044;-64
2022/02/17 11:15:58;;;;;;;7.75;2.33;;;4.20;99.90;;;;;;5077334;28;20523;-63
2022/02/17 11:18:25;;;;;;;19.95;3.20;;;4.50;99.90;;;;;;5077424;28;20119;-63
2022/02/17 11:20:53;;;;;;;18.25;2.45;;;4.70;99.90;;;;;;5077004;28;20540;-64
2022/02/17 11:23:21;;;;;;;9.23;2.30;;;4.90;99.90;;;;;;5083367;28;20071;-64
2022/02/17 11:25:48;;;;;;;13.70;1.90;;;5.10;99.90;;;;;;5077957;28;20544;-62
2022/02/17 11:28:17;;;;;;;14.23;1.85;;;5.20;99.90;;;;;;5082327;28;20040;-65
2022/02/17 11:30:55;;;;;;;13.57;2.58;;;5.30;99.90;;;;;;5078798;28;20055;-64
2022/02/17 11:33:27;;;;;;;13.35;2.20;;;5.30;99.90;;;;;;5083578;28;20043;-66
2022/02/17 11:35:56;;;;;;;10.95;2.53;;;5.20;99.90;;;;;;5077868;28;20162;-62
2022/02/17 11:38:28;;;;;;;19.67;2.90;;;5.10;99.90;;;;;;5081905;28;20044;-62
2022/02/17 11:40:59;;;;;;;15.02;1.95;;;4.90;99.90;;;;;;5072101;28;20037;-64
2022/02/17 11:43:31;;;;;;;7.75;1.80;;;4.50;99.90;;;;;;5079267;28;20040;-63
2022/02/17 11:45:57;;;;;;;13.13;2.03;;;4.20;99.90;;;;;;5077785;28;20045;-64
2022/02/17 11:48:51;;;;;;;13.18;1.95;;;4.00;99.90;;;;;;5069180;28;20103;-63
2022/02/17 11:51:22;;;;;;;9.70;2.50;;;3.90;99.90;;;;;;5066612;28;20048;-63
2022/02/17 11:54:14;;;;;;;11.05;1.95;;;3.70;99.90;;;;;;5081081;28;20609;-63
2022/02/17 11:56:44;;;;;;;11.15;2.40;;;3.80;99.90;;;;;;5077113;28;20036;-63
2022/02/17 11:59:29;;;;;;;10.18;2.60;;;3.90;99.90;;;;;;5083479;28;20032;-64
2022/02/17 12:02:03;;;;;;;13.98;2.83;;;4.00;99.90;;;;;;5073832;28;20617;-63
2022/02/17 12:04:31;;;;;;;16.52;2.75;;;4.00;99.90;;;;;;5057098;28;20101;-63
2022/02/17 12:06:59;;;;;;;15.77;2.58;;;3.90;99.90;;;;;;5075686;28;20127;-63
2022/02/17 12:09:41;;;;;;;11.32;2.42;;;3.90;99.90;;;;;;5076988;28;20097;-63
2022/02/17 12:12:09;;;;;;;13.07;2.97;;;3.90;99.90;;;;;;5075684;28;20048;-63
2022/02/17 12:14:45;;;;;;;18.90;2.30;;;3.90;99.90;;;;;;5085457;28;20613;-63
2022/02/17 12:17:10;;;;;;;14.07;3.85;;;3.90;99.90;;;;;;5082573;28;20048;-64
2022/02/17 12:19:36;;;;;;;17.98;2.95;;;3.90;99.90;;;;;;5088064;28;20051;-63
2022/02/17 12:22:09;;;;;;;16.92;3.03;;;3.90;99.90;;;;;;5080807;28;20032;-63
2022/02/17 12:24:45;;;;;;;13.57;2.83;;;3.90;99.90;;;;;;5087178;28;20120;-63
2022/02/17 12:27:12;;;;;;;15.65;2.72;;;4.20;99.90;;;;;;5082530;28;20062;-64
2022/02/17 12:29:42;;;;;;;13.63;2.20;;;4.40;99.90;;;;;;5087568;28;20040;-64
2022/02/17 12:32:16;;;;;;;12.85;3.30;;;4.60;99.90;;;;;;5077156;28;20028;-63
2022/02/17 12:34:42;;;;;;;11.50;2.20;;;4.80;99.90;;;;;;5079019;28;20045;-63
2022/02/17 12:37:15;;;;;;;12.05;2.70;;;5.00;99.90;;;;;;5074982;28;20052;-63
2022/02/17 12:39:44;;;;;;;14.25;2.50;;;5.20;99.90;;;;;;5079964;28;20043;-64
2022/02/17 12:42:10;;;;;;;16.30;2.35;;;5.30;99.90;;;;;;5077746;28;20658;-64
2022/02/17 12:44:39;;;;;;;10.68;2.15;;;5.30;99.90;;;;;;5086444;28;20113;-63
2022/02/17 12:47:11;;;;;;;11.35;2.25;;;5.30;99.90;;;;;;5081593;28;20047;-63
2022/02/17 12:49:38;;;;;;;15.55;3.05;;;5.20;99.90;;;;;;5088006;28;20629;-63
2022/02/17 12:52:08;;;;;;;9.73;1.48;;;5.20;99.90;;;;;;5080786;28;20032;-63
2022/02/17 12:54:35;;;;;;;10.75;1.60;;;5.20;99.90;;;;;;5085074;28;20115;-63
2022/02/17 12:57:11;;;;;;;10.15;2.17;;;5.30;99.90;;;;;;5084271;28;20097;-63
2022/02/17 12:59:40;;;;;;;11.98;2.13;;;5.30;99.90;;;;;;5087420;28;20044;-63
2022/02/17 13:02:06;;;;;;;18.13;3.03;;;5.30;99.90;;;;;;5070035;28;20259;-64
2022/02/17 13:04:33;;;;;;;14.15;1.70;;;5.20;99.90;;;;;;5082226;28;20036;-63
2022/02/17 13:07:03;;;;;;;15.63;2.88;;;5.20;99.90;;;;;;5078720;28;20063;-63
2022/02/17 13:09:29;;;;;;;13.40;2.20;;;5.20;99.90;;;;;;5087376;28;20083;-63